Time;durP1;ratioP1;P1;durP2;ratioP2;P2;SDS_P1;SDS_P2;PMS_P1;PMS_P2;Temp;Humidity;BMP_temperature;BMP_pressure;BME280_temperature;BME280_humidity;BME280_pressure;Samples;Min_cycle;Max_cycle;Signal;HPM_P1;HPM_P2
2024/01/11 00:00:51;;;;;;;5.20;0.80;;;;;;;1.90;80.44;96234.88;5133538;27;20464;-54
2024/01/11 00:03:20;;;;;;;0.93;0.93;;;;;;;2.00;80.44;96235.31;5133417;27;20892;-54
2024/01/11 00:05:49;;;;;;;2.10;0.90;;;;;;;2.14;80.01;96239.63;5119446;27;20874;-55
2024/01/11 00:08:17;;;;;;;1.20;0.73;;;;;;;2.00;82.14;96240.53;5133782;27;20481;-55
2024/01/11 00:10:46;;;;;;;0.40;0.40;;;;;;;2.42;79.49;96235.13;5133019;27;20499;-54
2024/01/11 00:13:16;;;;;;;0.63;0.53;;;;;;;2.69;77.39;96237.81;5133245;27;20435;-54
2024/01/11 00:15:45;;;;;;;1.37;1.27;;;;;;;2.66;77.64;96225.13;5107452;27;20466;-54
2024/01/11 00:18:14;;;;;;;1.60;0.63;;;;;;;2.84;76.63;96233.22;5133372;27;20434;-54
2024/01/11 00:20:43;;;;;;;0.60;0.40;;;;;;;2.76;76.40;96221.09;5133612;27;20444;-54
2024/01/11 00:23:12;;;;;;;0.87;0.60;;;;;;;2.66;76.69;96223.31;5133359;27;20434;-54
2024/01/11 00:25:40;;;;;;;1.20;1.10;;;;;;;2.60;77.26;96218.88;5133776;27;20464;-54
2024/01/11 00:28:09;;;;;;;1.80;0.93;;;;;;;2.64;76.85;96219.28;5133252;27;20462;-54
2024/01/11 00:30:39;;;;;;;11.13;1.57;;;;;;;2.63;77.11;96215.06;5133335;27;20431;-54
2024/01/11 00:33:08;;;;;;;0.63;0.63;;;;;;;2.24;77.20;96140.69;5133457;27;20431;-54
2024/01/11 00:35:37;;;;;;;1.53;1.43;;;;;;;2.72;78.08;96216.47;5133227;27;20449;-54
2024/01/11 00:38:06;;;;;;;0.97;0.87;;;;;;;2.65;76.97;96210.41;5132800;27;20447;-54
2024/01/11 00:40:35;;;;;;;0.60;0.50;;;;;;;2.29;76.38;96145.31;5133164;27;20439;-54
2024/01/11 00:43:04;;;;;;;1.00;0.83;;;;;;;2.71;76.29;96213.03;5132717;27;20435;-54
2024/01/11 00:45:32;;;;;;;0.50;0.40;;;;;;;2.71;75.79;96213.03;5132958;27;20434;-54
2024/01/11 00:48:02;;;;;;;2.20;1.40;;;;;;;2.71;76.54;96207.03;5132440;27;20501;-54
2024/01/11 00:50:31;;;;;;;0.90;0.90;;;;;;;2.76;76.64;96209.84;5133107;27;20434;-54
2024/01/11 00:53:01;;;;;;;0.73;0.70;;;;;;;2.76;77.20;96209.84;5132882;27;20582;-54
2024/01/11 00:55:29;;;;;;;0.60;0.47;;;;;;;2.75;77.52;96203.81;5133182;27;20434;-54
2024/01/11 00:57:58;;;;;;;0.73;0.70;;;;;;;2.80;77.93;96203.22;5132724;27;20946;-54
2024/01/11 01:00:27;;;;;;;1.47;1.13;;;;;;;2.89;79.16;96209.84;5132972;27;20461;-54
2024/01/11 01:02:55;;;;;;;0.40;0.40;;;;;;;2.95;78.77;96212.50;5132879;27;20491;-54
2024/01/11 01:05:26;;;;;;;0.70;0.70;;;;;;;2.84;75.96;96199.16;5132699;27;20532;-54
2024/01/11 01:07:54;;;;;;;1.23;1.23;;;;;;;2.85;77.07;96203.41;5132567;27;20501;-54
2024/01/11 01:10:23;;;;;;;1.43;1.33;;;;;;;2.83;76.44;96208.88;5132875;27;20526;-54
2024/01/11 01:12:52;;;;;;;0.60;0.50;;;;;;;2.85;76.83;96206.03;5132895;27;20439;-54
2024/01/11 01:15:20;;;;;;;1.00;1.00;;;;;;;2.72;76.82;96191.13;5132125;27;20438;-55
2024/01/11 01:17:49;;;;;;;1.23;1.03;;;;;;;2.87;77.06;96199.59;5132316;27;20438;-54
2024/01/11 01:20:18;;;;;;;1.63;0.80;;;;;;;2.88;76.50;96221.34;5132892;27;20427;-54
2024/01/11 01:22:48;;;;;;;3.70;0.40;;;;;;;2.74;77.09;96188.28;5133041;27;20810;-54
2024/01/11 01:25:16;;;;;;;0.83;0.83;;;;;;;2.62;78.08;96161.91;5105749;27;20426;-54
2024/01/11 01:27:45;;;;;;;2.83;0.90;;;;;;;2.89;79.22;96189.72;5131882;27;20499;-54
2024/01/11 01:30:14;;;;;;;0.70;0.70;;;;;;;2.73;78.78;96174.41;5132672;27;20427;-54
2024/01/11 01:32:43;;;;;;;2.20;1.17;;;;;;;2.90;79.00;96195.78;5132204;27;20868;-54
2024/01/11 01:35:12;;;;;;;1.00;1.00;;;;;;;2.59;77.13;96154.44;5106405;27;20474;-54
2024/01/11 01:37:40;;;;;;;1.00;0.70;;;;;;;2.73;77.10;96178.84;5132361;27;20430;-54
2024/01/11 01:40:12;;;;;;;1.97;1.87;;;;;;;2.79;76.07;96193.72;5132193;27;20434;-54
2024/01/11 01:42:44;;;;;;;0.90;0.90;;;;;;;2.68;75.48;96186.47;5132044;27;20435;-54
2024/01/11 01:45:13;;;;;;;1.50;1.40;;;;;;;2.63;74.59;96187.06;5132157;27;20435;-54
2024/01/11 01:47:43;;;;;;;0.50;0.40;;;;;;;2.58;74.82;96186.06;5131444;27;20438;-54
2024/01/11 01:50:13;;;;;;;1.13;1.07;;;;;;;2.32;76.08;96130.06;5131738;28;20438;-54
2024/01/11 01:52:44;;;;;;;1.40;1.30;;;;;;;2.27;75.43;96148.16;5130751;27;20549;-54
2024/01/11 01:55:16;;;;;;;2.93;0.70;;;;;;;2.39;76.48;96161.44;5132126;28;20533;-54
2024/01/11 01:57:47;;;;;;;2.77;0.60;;;;;;;2.51;77.07;96158.06;5131993;27;20446;-54
2024/01/11 02:00:16;;;;;;;1.40;1.30;;;;;;;2.33;75.12;96165.66;5133687;27;20434;-54
2024/01/11 02:02:47;;;;;;;2.87;1.30;;;;;;;2.54;75.27;96162.91;5136246;27;20885;-54
2024/01/11 02:05:17;;;;;;;2.87;2.67;;;;;;;2.60;74.61;96163.09;5136550;27;20434;-55
2024/01/11 02:07:46;;;;;;;0.53;0.53;;;;;;;2.39;73.91;96154.41;5136100;27;20946;-55
2024/01/11 02:10:17;;;;;;;0.70;0.70;;;;;;;2.40;73.60;96155.22;5135838;27;20483;-54
2024/01/11 02:12:46;;;;;;;0.83;0.77;;;;;;;2.32;73.54;96150.16;5135768;27;20491;-54
2024/01/11 02:15:15;;;;;;;0.70;0.70;;;;;;;2.41;73.58;96160.25;5135168;27;20461;-54
2024/01/11 02:17:44;;;;;;;1.03;0.67;;;;;;;2.39;73.25;96159.66;5135289;27;20435;-54
2024/01/11 02:20:13;;;;;;;0.80;0.70;;;;;;;2.39;73.42;96146.56;5135866;27;20441;-54
2024/01/11 02:22:47;;;;;;;3.33;0.80;;;;;;;2.35;73.12;96144.53;5135956;27;20521;-54
2024/01/11 02:25:17;;;;;;;0.93;0.80;;;;;;;2.28;73.49;96147.13;5135799;27;20427;-54
2024/01/11 02:27:47;;;;;;;0.50;0.47;;;;;;;1.90;75.46;96145.97;5135335;27;20468;-54
2024/01/11 02:30:17;;;;;;;0.80;0.80;;;;;;;1.95;75.03;96114.84;5135510;27;20474;-54
2024/01/11 02:32:48;;;;;;;1.33;1.23;;;;;;;2.27;74.60;96147.34;5135276;27;20462;-54
2024/01/11 02:35:17;;;;;;;0.67;0.40;;;;;;;1.54;74.68;96027.88;5135164;27;20442;-54
2024/01/11 02:37:47;;;;;;;0.60;0.53;;;;;;;1.72;74.26;96059.50;5135260;27;20434;-54
2024/01/11 02:40:17;;;;;;;1.33;0.50;;;;;;;1.76;74.28;96065.94;5136110;27;20438;-54
2024/01/11 02:42:46;;;;;;;0.73;0.73;;;;;;;2.13;73.18;96120.34;5134309;27;20438;-55
2024/01/11 02:45:15;;;;;;;0.63;0.50;;;;;;;1.93;73.55;96085.47;5135333;27;20442;-54
2024/01/11 02:47:43;;;;;;;1.00;0.50;;;;;;;2.17;72.92;96139.88;5135476;27;20445;-54
2024/01/11 02:50:12;;;;;;;0.43;0.30;;;;;;;2.17;73.10;96132.03;5135282;27;21165;-54
2024/01/11 02:52:41;;;;;;;0.63;0.30;;;;;;;2.24;73.43;96127.63;5133567;27;20899;-54
2024/01/11 02:55:10;;;;;;;0.53;0.40;;;;;;;2.22;74.38;96127.00;5133932;28;20793;-54
2024/01/11 02:57:40;;;;;;;0.40;0.40;;;;;;;1.93;74.79;96086.28;5134164;27;20466;-54
2024/01/11 03:00:09;;;;;;;1.00;1.00;;;;;;;1.93;75.33;96122.88;5134177;27;20449;-54
2024/01/11 03:02:39;;;;;;;0.43;0.43;;;;;;;2.17;77.05;96124.19;5133571;28;20534;-54
2024/01/11 03:05:07;;;;;;;0.30;0.30;;;;;;;2.33;77.72;96118.56;5133253;27;20446;-54
2024/01/11 03:07:36;;;;;;;0.30;0.20;;;;;;;2.16;75.07;96093.78;5133121;27;20465;-54
2024/01/11 03:10:05;;;;;;;1.07;1.07;;;;;;;2.23;73.70;96115.53;5133846;27;20469;-54
2024/01/11 03:12:34;;;;;;;1.03;0.50;;;;;;;2.15;73.82;96113.09;5133838;28;20430;-54
2024/01/11 03:15:05;;;;;;;0.83;0.43;;;;;;;2.10;73.14;96118.09;5133409;28;20442;-55
2024/01/11 03:17:35;;;;;;;1.30;1.27;;;;;;;2.26;73.67;96115.13;5133723;27;20445;-55
2024/01/11 03:20:05;;;;;;;0.47;0.33;;;;;;;2.25;74.77;96107.50;5133669;28;20435;-55
2024/01/11 03:22:34;;;;;;;0.53;0.50;;;;;;;1.61;74.65;96055.63;5133488;28;20435;-55
2024/01/11 03:25:03;;;;;;;0.60;0.60;;;;;;;2.17;75.42;96105.88;5133422;27;20438;-55
2024/01/11 03:27:31;;;;;;;0.70;0.70;;;;;;;2.20;73.82;96107.28;5134209;27;20510;-55
2024/01/11 03:30:00;;;;;;;0.43;0.43;;;;;;;2.14;73.48;96095.81;5133074;27;20478;-55
2024/01/11 03:32:30;;;;;;;0.43;0.43;;;;;;;2.16;72.83;96108.66;5133724;27;20446;-54
2024/01/11 03:34:59;;;;;;;0.77;0.53;;;;;;;2.02;72.87;96104.41;5132610;27;20461;-55
2024/01/11 03:37:28;;;;;;;0.53;0.50;;;;;;;2.16;73.18;96098.22;5133692;28;20518;-54
2024/01/11 03:39:57;;;;;;;2.40;0.40;;;;;;;2.22;72.94;96102.66;5132540;28;20438;-54
2024/01/11 03:42:25;;;;;;;2.37;0.37;;;;;;;2.17;72.62;96095.41;5133546;28;20435;-54
2024/01/11 03:44:54;;;;;;;0.30;0.20;;;;;;;2.12;73.15;96097.81;5133189;27;20487;-55
2024/01/11 03:47:22;;;;;;;0.40;0.40;;;;;;;1.96;72.43;96092.94;5132265;28;20518;-54
2024/01/11 03:49:53;;;;;;;0.80;0.70;;;;;;;0.91;76.40;96092.41;5106319;28;20474;-54
2024/01/11 03:52:21;;;;;;;2.00;0.67;;;;;;;0.80;78.71;96094.72;5085700;27;1332428;-55
2024/01/11 03:54:50;;;;;;;0.40;0.40;;;;;;;0.68;79.94;96091.03;5133347;27;20207;-55
2024/01/11 03:57:19;;;;;;;0.90;0.60;;;;;;;0.11;81.02;96025.94;5133678;27;20434;-54
2024/01/11 03:59:47;;;;;;;1.13;1.03;;;;;;;0.52;82.65;96094.72;5133215;27;20499;-54
2024/01/11 04:02:16;;;;;;;2.60;0.87;;;;;;;0.95;81.92;96091.03;5133606;27;20427;-54
2024/01/11 04:04:45;;;;;;;5.30;1.37;;;;;;;1.22;79.47;96087.59;5133447;27;20463;-54
2024/01/11 04:07:15;;;;;;;3.70;1.10;;;;;;;1.19;78.55;96058.44;5130344;27;20573;-54
2024/01/11 04:09:44;;;;;;;2.30;0.93;;;;;;;1.16;78.38;96033.50;5113144;28;20471;-54
2024/01/11 04:12:13;;;;;;;0.60;0.33;;;;;;;1.49;77.72;96085.94;5131026;27;20468;-54
2024/01/11 04:14:41;;;;;;;4.27;0.90;;;;;;;1.44;77.74;96077.06;5133980;27;20452;-54
2024/01/11 04:17:10;;;;;;;0.63;0.40;;;;;;;1.37;78.19;96077.00;5132213;27;20874;-54
2024/01/11 04:19:40;;;;;;;0.50;0.50;;;;;;;1.40;78.33;96075.81;5133751;27;20435;-54
2024/01/11 04:22:08;;;;;;;0.80;0.80;;;;;;;1.55;78.72;96072.06;5132527;27;20438;-54
2024/01/11 04:24:39;;;;;;;0.63;0.47;;;;;;;1.45;77.54;96042.09;5133929;27;20454;-54
2024/01/11 04:27:07;;;;;;;0.83;0.70;;;;;;;1.51;76.29;96057.00;5106993;27;20442;-55
2024/01/11 04:29:36;;;;;;;4.40;0.60;;;;;;;1.48;74.99;96028.63;5133558;27;20470;-54
2024/01/11 04:32:05;;;;;;;0.57;0.47;;;;;;;1.53;74.99;96045.34;5133808;27;20442;-54
2024/01/11 04:34:34;;;;;;;0.70;0.70;;;;;;;1.40;74.97;96008.72;5132893;27;20442;-54
2024/01/11 04:37:02;;;;;;;0.30;0.30;;;;;;;1.73;75.54;96077.59;5133111;27;21102;-54
2024/01/11 04:39:32;;;;;;;0.60;0.60;;;;;;;1.32;75.87;96078.63;5133326;27;20823;-54
2024/01/11 04:42:03;;;;;;;0.50;0.47;;;;;;;1.04;77.06;96069.00;5133382;27;20426;-55
2024/01/11 04:44:32;;;;;;;1.50;0.67;;;;;;;0.95;78.14;96082.38;5132446;27;20953;-55
2024/01/11 04:47:00;;;;;;;3.47;0.93;;;;;;;0.91;78.13;96079.34;5132664;27;20447;-54
2024/01/11 04:49:29;;;;;;;1.27;1.17;;;;;;;0.91;78.23;96081.97;5133048;27;20461;-54
2024/01/11 04:51:57;;;;;;;0.73;0.73;;;;;;;0.82;78.57;96079.69;5132079;27;21025;-55
2024/01/11 04:54:26;;;;;;;1.53;0.73;;;;;;;0.70;79.41;96089.84;5132964;27;20435;-54
2024/01/11 04:56:55;;;;;;;2.30;2.20;;;;;;;0.73;80.12;96078.22;5133230;27;20446;-55
2024/01/11 04:59:25;;;;;;;2.77;0.83;;;;;;;0.69;80.96;96079.59;5133414;27;20453;-56
2024/01/11 05:01:53;;;;;;;1.00;0.63;;;;;;;-0.07;81.68;96006.34;5132702;27;20427;-55
2024/01/11 05:04:22;;;;;;;1.53;1.50;;;;;;;0.42;84.70;96087.22;5131938;27;20441;-56
2024/01/11 05:06:52;;;;;;;1.23;1.13;;;;;;;0.15;86.62;96076.72;5129653;27;20438;-55
2024/01/11 05:09:21;;;;;;;1.47;1.30;;;;;;;-0.04;87.92;96094.56;5120880;27;20945;-56
2024/01/11 05:11:50;;;;;;;4.00;1.40;;;;;;;-0.26;88.99;96097.34;5131533;27;20478;-55
2024/01/11 05:14:18;;;;;;;1.43;1.33;;;;;;;-0.18;89.78;96098.00;5132687;27;21021;-55
2024/01/11 05:16:48;;;;;;;8.33;2.80;;;;;;;-0.27;91.35;96082.69;5132818;27;20427;-54
2024/01/11 05:19:17;;;;;;;1.93;1.07;;;;;;;-0.34;91.79;96089.63;5132669;27;20431;-54
2024/01/11 05:21:46;;;;;;;1.23;1.23;;;;;;;-0.18;91.20;96085.00;5132150;27;20951;-55
2024/01/11 05:24:14;;;;;;;1.43;0.73;;;;;;;-0.23;91.27;96092.53;5132355;27;20438;-55
2024/01/11 05:26:43;;;;;;;2.10;1.07;;;;;;;-0.10;90.27;96079.66;5132287;27;20469;-55
2024/01/11 05:29:12;;;;;;;1.93;1.40;;;;;;;-0.10;89.02;96082.28;5132177;27;20470;-55
2024/01/11 05:31:40;;;;;;;0.47;0.47;;;;;;;-0.29;88.55;96082.88;5131645;27;20516;-54
2024/01/11 05:34:12;;;;;;;4.40;0.93;;;;;;;-0.56;90.85;96088.78;5131882;27;20507;-55
2024/01/11 05:36:41;;;;;;;2.67;2.47;;;;;;;-0.61;91.76;96069.47;5131603;27;20503;-56
2024/01/11 05:39:10;;;;;;;2.53;2.33;;;;;;;-0.86;92.30;96016.91;5132358;27;20470;-56
2024/01/11 05:41:39;;;;;;;2.33;2.23;;;;;;;-0.36;91.49;96082.00;5132454;27;20961;-56
2024/01/11 05:44:08;;;;;;;2.70;2.60;;;;;;;-0.47;91.50;96079.84;5131647;27;20526;-55
2024/01/11 05:46:36;;;;;;;6.63;1.83;;;;;;;-0.33;92.12;96075.63;5124596;28;20439;-55
2024/01/11 05:49:05;;;;;;;2.93;2.73;;;;;;;-0.17;90.10;96070.97;5126363;28;20438;-55
2024/01/11 05:51:35;;;;;;;3.93;3.63;;;;;;;-0.58;88.21;95994.41;5131737;28;20478;-55
2024/01/11 05:54:04;;;;;;;2.70;1.77;;;;;;;-0.02;87.58;96069.13;5131499;27;20501;-54
2024/01/11 05:56:36;;;;;;;3.17;1.53;;;;;;;0.03;86.82;96065.97;5131614;27;20434;-55
2024/01/11 05:59:04;;;;;;;1.23;1.20;;;;;;;0.09;87.34;96070.44;5132349;27;20431;-55
2024/01/11 06:01:33;;;;;;;1.50;1.40;;;;;;;0.10;86.39;96063.44;5132424;28;20509;-55
2024/01/11 06:04:02;;;;;;;2.17;2.07;;;;;;;0.14;85.83;96062.88;5132070;28;20435;-55
2024/01/11 06:06:30;;;;;;;0.70;0.70;;;;;;;0.12;86.22;96057.06;5132533;27;20449;-55
2024/01/11 06:09:00;;;;;;;5.30;1.43;;;;;;;0.20;85.89;96069.16;5132569;27;20453;-55
2024/01/11 06:11:30;;;;;;;8.43;2.00;;;;;;;-0.24;85.83;96002.38;5132053;27;20523;-56
2024/01/11 06:14:00;;;;;;;1.83;1.73;;;;;;;0.14;85.86;96046.44;5131963;28;20491;-55
2024/01/11 06:16:29;;;;;;;6.23;2.90;;;;;;;0.32;85.82;96060.66;5132244;28;20515;-55
2024/01/11 06:18:58;;;;;;;22.57;5.40;;;;;;;0.36;85.59;96061.88;5132615;27;20442;-55
2024/01/11 06:21:27;;;;;;;4.57;4.37;;;;;;;0.32;84.84;96036.38;5132019;28;20859;-55
2024/01/11 06:23:56;;;;;;;10.07;5.50;;;;;;;0.49;86.36;96048.94;5131555;28;20529;-55
2024/01/11 06:26:26;;;;;;;4.93;4.43;;;;;;;0.49;85.08;96059.38;5114380;28;20434;-55
2024/01/11 06:28:54;;;;;;;4.30;4.03;;;;;;;0.51;85.36;96038.31;5131398;27;20950;-55
2024/01/11 06:31:23;;;;;;;3.57;3.10;;;;;;;0.45;85.10;96003.41;5131590;28;20541;-56
2024/01/11 06:33:51;;;;;;;3.77;3.47;;;;;;;1.28;84.76;96054.69;5132418;28;20438;-56
2024/01/11 06:36:20;;;;;;;2.53;2.43;;;;;;;1.26;82.24;96060.06;5131660;28;20945;-56
2024/01/11 06:38:49;;;;;;;8.33;3.93;;;;;;;1.56;83.04;96054.59;5131969;27;20435;-56
2024/01/11 06:41:17;;;;;;;4.63;4.00;;;;;;;1.66;82.04;96055.03;5131191;28;20871;-56
2024/01/11 06:43:47;;;;;;;4.60;3.70;;;;;;;2.11;79.50;96059.59;5132069;27;20434;-56
2024/01/11 06:46:21;;;;;;;4.20;3.97;;;;;;;2.27;78.77;96051.38;5132967;27;20434;-56
2024/01/11 06:48:50;;;;;;;3.93;1.50;;;;;;;2.68;76.53;96050.38;5135049;27;20513;-56
2024/01/11 06:51:22;;;;;;;5.23;1.57;;;;;;;3.28;75.01;96039.63;5134850;27;20470;-56
2024/01/11 06:53:51;;;;;;;7.50;2.10;;;;;;;3.41;76.22;96052.69;5134184;27;20488;-55
2024/01/11 06:56:21;;;;;;;1.93;1.73;;;;;;;3.70;76.20;96046.09;5134892;27;20506;-56
2024/01/11 06:58:51;;;;;;;1.73;1.63;;;;;;;3.95;74.73;96033.88;5134887;27;20445;-56
2024/01/11 07:01:19;;;;;;;6.90;2.90;;;;;;;3.99;72.54;96040.31;5135304;27;20438;-56
2024/01/11 07:03:49;;;;;;;2.70;2.60;;;;;;;4.08;71.67;96030.38;5135697;27;20434;-56
2024/01/11 07:06:18;;;;;;;6.83;2.37;;;;;;;4.25;66.49;96037.53;5125655;27;20441;-56
2024/01/11 07:08:47;;;;;;;1.93;1.83;;;;;;;3.77;65.12;96029.31;5132447;27;20426;-56
2024/01/11 07:11:16;;;;;;;2.90;2.77;;;;;;;3.27;68.45;96045.84;5135100;27;20514;-56
2024/01/11 07:13:44;;;;;;;6.70;1.10;;;;;;;3.13;69.71;96046.91;5135372;27;20426;-56
2024/01/11 07:16:15;;;;;;;4.73;2.70;;;;;;;3.29;69.62;96049.06;5134335;27;20833;-55
2024/01/11 07:18:44;;;;;;;2.10;1.73;;;;;;;3.90;68.80;96043.41;5135270;27;20453;-56
2024/01/11 07:21:12;;;;;;;3.70;3.37;;;;;;;3.82;67.40;96012.97;5135123;27;20444;-56
2024/01/11 07:23:41;;;;;;;2.70;2.50;;;;;;;4.70;64.93;96032.97;5107616;27;20427;-56
2024/01/11 07:26:10;;;;;;;5.03;2.00;;;;;;;4.82;63.35;96012.84;5120602;27;20471;-56
2024/01/11 07:28:39;;;;;;;2.80;2.10;;;;;;;5.54;62.10;96019.19;5133972;27;20942;-56
2024/01/11 07:31:08;;;;;;;3.03;1.53;;;;;;;6.55;59.36;96037.66;5134529;27;20473;-56
2024/01/11 07:33:38;;;;;;;7.10;2.83;;;;;;;7.19;56.38;96027.03;5134486;27;20434;-55
2024/01/11 07:36:09;;;;;;;2.40;2.30;;;;;;;5.79;57.37;95988.31;5134539;27;20841;-55
2024/01/11 07:38:37;;;;;;;4.57;3.50;;;;;;;6.54;57.71;96026.31;5127369;27;20430;-55
2024/01/11 07:41:06;;;;;;;1.67;1.40;;;;;;;7.03;55.66;96030.38;5129619;27;20452;-55
2024/01/11 07:43:35;;;;;;;1.40;1.07;;;;;;;7.23;56.00;96030.84;5134245;27;20442;-55
2024/01/11 07:46:20;;;;;;;1.60;1.40;;;;;;;7.61;56.44;96022.41;5134122;27;20522;-56
2024/01/11 07:49:04;;;;;;;4.37;1.80;;;;;;;8.20;54.00;95998.19;5134287;27;20431;-56
2024/01/11 07:51:34;;;;;;;2.60;2.40;;;;;;;8.48;52.12;95944.53;5133673;27;20896;-59
2024/01/11 07:54:04;;;;;;;2.20;2.10;;;;;;;8.74;52.69;96014.44;5133707;27;20466;-55
2024/01/11 07:56:33;;;;;;;3.50;1.40;;;;;;;8.88;53.85;96002.50;5133974;27;20884;-55
2024/01/11 07:59:02;;;;;;;1.23;1.13;;;;;;;8.99;50.91;95953.22;5133824;27;20434;-54
2024/01/11 08:01:31;;;;;;;2.53;1.70;;;;;;;9.61;51.08;95996.94;5134390;27;20521;-54
2024/01/11 08:04:02;;;;;;;1.53;1.43;;;;;;;11.20;49.04;95979.34;5133039;27;20434;-54
2024/01/11 08:06:33;;;;;;;0.97;0.97;;;;;;;11.83;46.47;95980.97;5133247;27;20992;-54
2024/01/11 08:09:04;;;;;;;2.80;0.90;;;;;;;12.95;46.86;95980.09;5132427;27;20430;-54
2024/01/11 08:11:34;;;;;;;1.17;1.17;;;;;;;12.01;46.10;95916.75;5132324;27;20493;-54
2024/01/11 08:14:06;;;;;;;1.63;0.83;;;;;;;11.47;45.52;95969.38;5106744;27;20601;-53
2024/01/11 08:16:35;;;;;;;0.87;0.87;;;;;;;12.67;43.98;95968.09;5132112;27;21009;-53
2024/01/11 08:19:03;;;;;;;2.97;2.63;;;;;;;11.41;44.60;95959.78;5132825;27;20449;-53
2024/01/11 08:21:33;;;;;;;5.30;3.00;;;;;;;11.26;44.62;95980.13;5133503;27;20897;-53
2024/01/11 08:24:02;;;;;;;1.17;1.13;;;;;;;10.91;44.88;95927.69;5134159;27;20491;-53
2024/01/11 08:26:31;;;;;;;2.13;2.03;;;;;;;10.98;45.42;95983.16;5133362;27;20986;-52
2024/01/11 08:29:00;;;;;;;1.87;1.77;;;;;;;11.44;44.83;95969.09;5133512;27;20435;-53
2024/01/11 08:31:29;;;;;;;1.40;1.30;;;;;;;11.61;44.25;95963.59;5132700;27;20431;-54
2024/01/11 08:33:57;;;;;;;2.00;1.90;;;;;;;11.96;43.58;95961.09;5133681;27;20487;-53
2024/01/11 08:36:34;;;;;;;5.73;2.87;;;;;;;11.04;43.21;95736.25;5132975;27;20433;-53
2024/01/11 08:39:05;;;;;;;1.83;1.73;;;;;;;12.48;42.14;95915.72;5133277;27;20431;-53
2024/01/11 08:41:34;;;;;;;2.07;1.97;;;;;;;12.88;42.08;95954.78;5133140;27;20430;-54
2024/01/11 08:44:05;;;;;;;1.90;1.80;;;;;;;11.95;41.42;95901.84;5132651;27;20431;-54
2024/01/11 08:46:34;;;;;;;5.13;1.37;;;;;;;12.83;41.13;95941.47;5133604;27;20456;-54
2024/01/11 08:49:04;;;;;;;0.80;0.80;;;;;;;12.92;41.35;95945.22;5133010;27;20922;-55
2024/01/11 08:51:34;;;;;;;1.10;1.10;;;;;;;12.77;41.02;95900.00;5133038;27;20430;-55
2024/01/11 08:54:04;;;;;;;3.13;1.70;;;;;;;13.25;41.34;95928.69;5133324;27;20550;-55
2024/01/11 08:56:32;;;;;;;1.17;1.07;;;;;;;12.87;41.05;95913.28;5133010;27;20465;-56
2024/01/11 08:59:01;;;;;;;2.60;2.50;;;;;;;13.31;39.99;95920.41;5132013;27;20442;-56
2024/01/11 09:01:30;;;;;;;5.23;2.87;;;;;;;13.78;39.70;95924.47;5133617;27;20435;-56
2024/01/11 09:03:59;;;;;;;1.43;1.03;;;;;;;13.47;39.73;95862.56;5132692;27;20434;-56
2024/01/11 09:06:27;;;;;;;1.60;1.30;;;;;;;13.67;40.01;95881.09;5133157;27;20443;-57
2024/01/11 09:08:57;;;;;;;2.17;1.60;;;;;;;14.51;39.31;95901.38;5132201;27;20437;-57
2024/01/11 09:11:26;;;;;;;1.00;1.00;;;;;;;14.34;38.75;95898.31;5133003;27;20431;-57
2024/01/11 09:13:54;;;;;;;0.67;0.60;;;;;;;14.52;38.50;95892.31;5132185;27;20476;-57
2024/01/11 09:16:24;;;;;;;1.60;1.50;;;;;;;13.16;39.65;95890.38;5132639;27;20473;-57
2024/01/11 09:18:53;;;;;;;3.93;0.60;;;;;;;12.72;40.17;95890.94;5132323;27;20427;-57
2024/01/11 09:21:22;;;;;;;1.83;1.73;;;;;;;13.51;39.55;95879.56;5132433;27;20439;-57
2024/01/11 09:23:50;;;;;;;0.70;0.70;;;;;;;13.48;39.96;95882.81;5105688;27;20473;-58
2024/01/11 09:26:22;;;;;;;0.73;0.73;;;;;;;13.91;38.56;95865.25;5132239;27;20950;-57
2024/01/11 09:28:51;;;;;;;1.23;1.23;;;;;;;14.75;37.58;95854.19;5132694;27;21117;-56
2024/01/11 09:31:19;;;;;;;0.50;0.50;;;;;;;15.49;36.53;95850.97;5131495;27;20434;-57
2024/01/11 09:33:49;;;;;;;1.43;0.60;;;;;;;15.39;36.29;95850.28;5132080;27;20474;-57
2024/01/11 09:36:18;;;;;;;4.70;0.83;;;;;;;14.67;37.25;95838.81;5132226;27;20471;-57
2024/01/11 09:38:48;;;;;;;2.10;0.70;;;;;;;14.55;37.08;95833.84;5132254;27;20435;-58
2024/01/11 09:41:17;;;;;;;2.50;1.80;;;;;;;14.93;36.79;95821.44;5131841;27;20443;-58
2024/01/11 09:43:51;;;;;;;1.10;1.00;;;;;;;14.93;36.59;95786.75;5132208;27;20442;-58
2024/01/11 09:46:21;;;;;;;1.20;1.10;;;;;;;15.39;36.85;95810.22;5132497;27;20433;-58
2024/01/11 09:48:50;;;;;;;1.83;1.73;;;;;;;15.86;36.35;95802.88;5132253;27;20441;-58
2024/01/11 09:51:19;;;;;;;2.50;1.00;;;;;;;16.06;35.08;95799.13;5131464;28;20518;-57
2024/01/11 09:53:52;;;;;;;0.97;0.67;;;;;;;15.91;35.32;95774.50;5131778;27;20498;-57
2024/01/11 09:56:20;;;;;;;0.40;0.37;;;;;;;16.46;32.97;95785.09;5106517;28;20441;-58
2024/01/11 09:58:51;;;;;;;1.23;1.23;;;;;;;16.25;32.19;95766.97;5131442;28;20560;-58
2024/01/11 10:01:21;;;;;;;0.50;0.40;;;;;;;17.21;33.71;95779.38;5132071;27;20430;-57
2024/01/11 10:03:50;;;;;;;0.47;0.37;;;;;;;17.17;32.20;95773.06;5131890;28;20442;-59
2024/01/11 10:06:20;;;;;;;0.70;0.70;;;;;;;18.50;30.76;95756.31;5131905;28;21060;-58
2024/01/11 10:08:49;;;;;;;0.53;0.40;;;;;;;16.72;31.96;95697.09;5131935;27;20472;-58
2024/01/11 10:11:17;;;;;;;0.70;0.67;;;;;;;16.10;32.57;95757.34;5131721;27;20438;-57
2024/01/11 10:13:47;;;;;;;2.30;0.53;;;;;;;16.23;32.60;95713.00;5131779;27;20503;-57
2024/01/11 10:16:17;;;;;;;0.40;0.33;;;;;;;15.98;32.63;95751.66;5132178;28;20438;-57
2024/01/11 10:18:45;;;;;;;0.60;0.50;;;;;;;16.64;32.96;95735.28;5131672;27;20434;-57
2024/01/11 10:21:14;;;;;;;0.40;0.30;;;;;;;17.17;32.42;95745.47;5133966;27;20437;-56
2024/01/11 10:23:43;;;;;;;0.40;0.33;;;;;;;17.64;30.75;95743.09;5135513;27;20466;-57
2024/01/11 10:26:12;;;;;;;0.80;0.80;;;;;;;17.21;32.45;95733.84;5136070;27;20470;-56
2024/01/11 10:28:41;;;;;;;0.40;0.40;;;;;;;17.62;31.68;95729.22;5135457;27;20513;-56
2024/01/11 10:31:10;;;;;;;0.80;0.80;;;;;;;17.31;33.07;95708.72;5135528;27;20434;-56
2024/01/11 10:33:40;;;;;;;1.37;1.27;;;;;;;16.99;31.90;95729.22;5135965;27;20494;-56
2024/01/11 10:36:10;;;;;;;0.50;0.37;;;;;;;17.27;31.87;95676.38;5135714;27;20438;-56
2024/01/11 10:38:44;;;;;;;2.00;0.60;;;;;;;17.04;32.40;95713.03;5136219;27;20923;-56
2024/01/11 10:41:14;;;;;;;0.57;0.50;;;;;;;17.87;32.42;95659.97;5135809;27;21106;-56
2024/01/11 10:43:44;;;;;;;0.90;0.90;;;;;;;18.06;32.34;95692.78;5135540;27;20465;-55
2024/01/11 10:46:16;;;;;;;0.40;0.20;;;;;;;19.50;31.33;95686.31;5134734;27;20433;-55
2024/01/11 10:48:52;;;;;;;1.23;1.07;;;;;;;18.57;32.20;95679.59;5134882;27;20445;-55
2024/01/11 10:51:23;;;;;;;6.70;0.80;;;;;;;18.87;32.25;95684.13;5109426;27;20430;-55
2024/01/11 10:53:54;;;;;;;0.60;0.47;;;;;;;19.31;30.50;95674.25;5134933;27;20492;-55
2024/01/11 10:56:25;;;;;;;0.40;0.30;;;;;;;18.39;30.30;95667.22;5135895;27;20803;-55
2024/01/11 10:58:55;;;;;;;0.50;0.30;;;;;;;18.15;30.48;95662.19;5135481;27;20536;-55
2024/01/11 11:01:26;;;;;;;8.83;0.50;;;;;;;17.88;31.39;95642.81;5135273;27;20452;-55
2024/01/11 11:03:57;;;;;;;0.77;0.73;;;;;;;17.90;30.65;95652.13;5134979;27;20430;-55
2024/01/11 11:06:26;;;;;;;1.20;0.70;;;;;;;17.13;31.88;95668.38;5135689;27;20528;-55
2024/01/11 11:08:56;;;;;;;0.70;0.50;;;;;;;17.71;32.01;95646.16;5135014;27;20448;-55
2024/01/11 11:11:26;;;;;;;0.97;0.97;;;;;;;17.56;30.96;95604.44;5135588;27;20453;-56
2024/01/11 11:13:57;;;;;;;0.40;0.30;;;;;;;17.93;30.84;95631.94;5134817;27;20481;-55
2024/01/11 11:16:25;;;;;;;0.50;0.43;;;;;;;18.05;30.27;95613.38;5134889;27;20819;-55
2024/01/11 11:18:57;;;;;;;1.80;0.90;;;;;;;18.52;30.87;95617.25;5135178;27;20435;-56
2024/01/11 11:21:26;;;;;;;0.40;0.20;;;;;;;19.49;29.82;95603.28;5134715;27;20434;-56
2024/01/11 11:23:57;;;;;;;1.27;0.50;;;;;;;19.09;29.21;95601.84;5135063;27;20508;-56
2024/01/11 11:26:28;;;;;;;0.50;0.40;;;;;;;18.55;29.49;95595.13;5135154;27;20487;-56
2024/01/11 11:28:57;;;;;;;0.60;0.43;;;;;;;18.67;29.72;95582.66;5134356;27;21019;-56
2024/01/11 11:31:39;;;;;;;0.57;0.50;;;;;;;19.61;28.83;95573.84;5133605;27;20487;-55
2024/01/11 11:34:12;;;;;;;0.60;0.60;;;;;;;19.13;28.96;95584.75;5134906;27;20466;-55
2024/01/11 11:36:42;;;;;;;0.63;0.60;;;;;;;19.03;29.02;95571.66;5134614;27;20468;-55
2024/01/11 11:39:12;;;;;;;0.40;0.23;;;;;;;20.00;29.06;95570.09;5134500;27;21040;-55
2024/01/11 11:41:42;;;;;;;0.40;0.30;;;;;;;18.95;28.47;95534.81;5108011;27;20473;-55
2024/01/11 11:44:14;;;;;;;1.90;0.53;;;;;;;19.94;29.00;95558.72;5134819;27;20449;-55
2024/01/11 11:46:43;;;;;;;0.50;0.40;;;;;;;19.25;28.73;95557.28;5134786;27;20438;-55
2024/01/11 11:49:14;;;;;;;1.10;0.97;;;;;;;18.71;28.64;95545.25;5134336;27;20434;-55